createdAt,value
2018-11-14T00:00:52.842Z,0.00
2018-11-14T00:01:52.809Z,0.00
2018-11-14T00:02:52.778Z,0.00
2018-11-14T00:03:52.745Z,0.00
2018-11-14T00:04:52.712Z,0.00
2018-11-14T00:05:52.679Z,0.00
2018-11-14T00:06:52.648Z,0.00
2018-11-14T00:07:52.619Z,0.00
2018-11-14T00:08:52.584Z,0.00
2018-11-14T00:09:52.552Z,0.00
2018-11-14T00:10:52.520Z,0.00
2018-11-14T00:11:52.489Z,0.00
2018-11-14T00:12:52.455Z,0.00
2018-11-14T00:13:52.424Z,0.00
2018-11-14T00:14:52.393Z,0.00
2018-11-14T00:15:52.360Z,0.00
2018-11-14T00:16:52.331Z,0.00
2018-11-14T00:17:52.298Z,0.00
2018-11-14T00:18:52.263Z,0.00
2018-11-14T00:19:52.232Z,0.00
2018-11-14T00:20:52.199Z,0.00
2018-11-14T00:21:52.167Z,0.00
2018-11-14T00:22:52.138Z,0.00
2018-11-14T00:23:52.105Z,0.00
2018-11-14T00:24:52.454Z,0.00
2018-11-14T00:25:52.040Z,0.00
2018-11-14T00:26:52.528Z,0.00
2018-11-14T00:27:51.984Z,0.00
2018-11-14T00:28:51.941Z,0.00
2018-11-14T00:29:51.909Z,0.00
2018-11-14T00:30:51.878Z,0.00
2018-11-14T00:31:51.847Z,0.00
2018-11-14T00:32:51.814Z,0.00
2018-11-14T00:33:51.781Z,0.00
2018-11-14T00:34:51.795Z,0.00
2018-11-14T00:35:51.719Z,0.00
2018-11-14T00:36:51.685Z,0.00
2018-11-14T00:37:51.654Z,0.00
2018-11-14T00:38:51.626Z,0.00
2018-11-14T00:39:51.590Z,0.00
2018-11-14T00:40:51.558Z,0.00
2018-11-14T00:41:51.524Z,0.00
2018-11-14T00:42:51.492Z,0.00
2018-11-14T00:43:51.461Z,0.00
2018-11-14T00:44:51.427Z,0.00
2018-11-14T00:45:51.394Z,0.00
2018-11-14T00:46:51.364Z,0.00
2018-11-14T00:47:51.338Z,0.00
2018-11-14T00:48:51.297Z,0.00
2018-11-14T00:49:51.266Z,0.00
2018-11-14T00:50:51.238Z,0.00
2018-11-14T00:51:51.202Z,0.00
2018-11-14T00:52:51.176Z,0.00
2018-11-14T00:53:51.138Z,0.00
2018-11-14T00:54:51.105Z,0.00
2018-11-14T00:55:51.072Z,0.00
2018-11-14T00:56:51.040Z,0.00
2018-11-14T00:57:51.013Z,0.00
2018-11-14T00:58:50.976Z,0.00
2018-11-14T00:59:50.951Z,0.00
2018-11-14T01:00:50.912Z,0.00
2018-11-14T01:01:50.879Z,0.00
2018-11-14T01:02:50.850Z,0.00
2018-11-14T01:03:50.815Z,0.00
2018-11-14T01:04:50.782Z,0.00
2018-11-14T01:05:50.750Z,0.00
2018-11-14T01:06:50.722Z,0.00
2018-11-14T01:07:50.688Z,0.00
2018-11-14T01:08:50.655Z,0.00
2018-11-14T01:09:50.621Z,0.00
2018-11-14T01:10:50.591Z,0.00
2018-11-14T01:11:50.559Z,0.00
2018-11-14T01:12:50.524Z,0.00
2018-11-14T01:13:50.493Z,0.00
2018-11-14T01:14:50.460Z,0.00
2018-11-14T01:15:50.429Z,0.00
2018-11-14T01:16:50.399Z,0.00
2018-11-14T01:17:50.364Z,0.00
2018-11-14T01:18:50.332Z,0.00
2018-11-14T01:19:50.301Z,0.00
2018-11-14T01:20:50.267Z,0.00
2018-11-14T01:21:50.234Z,0.00
2018-11-14T01:22:50.205Z,0.00
2018-11-14T01:23:50.170Z,0.00
2018-11-14T01:24:50.137Z,0.00
2018-11-14T01:25:50.105Z,0.00
2018-11-14T01:26:50.076Z,0.00
2018-11-14T01:27:50.043Z,0.00
2018-11-14T01:28:50.008Z,0.00
2018-11-14T01:29:49.975Z,0.00
2018-11-14T01:30:49.945Z,0.00
2018-11-14T01:31:49.912Z,0.00
2018-11-14T01:32:49.911Z,0.00
2018-11-14T01:33:49.845Z,0.00
2018-11-14T01:34:49.815Z,0.00
2018-11-14T01:35:49.907Z,0.00
2018-11-14T01:36:49.749Z,0.00
2018-11-14T01:37:49.718Z,0.00
2018-11-14T01:38:49.684Z,0.00
2018-11-14T01:39:49.654Z,0.00
2018-11-14T01:40:49.620Z,0.00
2018-11-14T01:41:49.587Z,0.00
2018-11-14T01:42:49.559Z,0.00
2018-11-14T01:43:49.525Z,0.00
2018-11-14T01:44:49.492Z,0.00
2018-11-14T01:45:49.457Z,0.00
2018-11-14T01:46:49.427Z,0.00
2018-11-14T01:47:49.394Z,0.00
2018-11-14T01:48:49.362Z,0.00
2018-11-14T01:49:49.329Z,0.00
2018-11-14T01:50:49.297Z,0.00
2018-11-14T01:51:49.265Z,0.00
2018-11-14T01:52:49.231Z,0.00
2018-11-14T01:53:49.199Z,0.00
2018-11-14T01:54:49.168Z,0.00
2018-11-14T01:55:49.142Z,0.00
2018-11-14T01:56:49.102Z,0.00
2018-11-14T01:57:49.069Z,0.00
2018-11-14T01:58:49.037Z,0.00
2018-11-14T01:59:49.007Z,0.00
2018-11-14T02:00:48.973Z,0.00
2018-11-14T02:01:48.944Z,0.00
2018-11-14T02:02:48.911Z,0.00
2018-11-14T02:03:48.875Z,0.00
2018-11-14T02:04:48.844Z,0.00
2018-11-14T02:05:48.811Z,0.00
2018-11-14T02:06:48.778Z,0.00
2018-11-14T02:07:48.746Z,0.00
2018-11-14T02:08:48.713Z,0.00
2018-11-14T02:09:48.682Z,0.00
2018-11-14T02:10:48.653Z,0.00
2018-11-14T02:11:48.616Z,0.00
2018-11-14T02:12:48.584Z,0.00
2018-11-14T02:13:48.552Z,0.00
2018-11-14T02:14:48.517Z,0.00
2018-11-14T02:15:48.487Z,0.00
2018-11-14T02:16:48.453Z,0.00
2018-11-14T02:17:48.421Z,0.00
2018-11-14T02:18:48.389Z,0.00
2018-11-14T02:19:48.357Z,0.00
2018-11-14T02:20:48.323Z,0.00
2018-11-14T02:21:48.293Z,0.00
2018-11-14T02:22:48.259Z,0.00
2018-11-14T02:23:48.228Z,0.00
2018-11-14T02:24:48.194Z,0.00
2018-11-14T02:25:48.162Z,0.00
2018-11-14T02:26:48.131Z,0.00
2018-11-14T02:27:48.097Z,0.00
2018-11-14T02:28:48.064Z,0.00
2018-11-14T02:29:48.031Z,0.00
2018-11-14T02:30:47.999Z,0.00
2018-11-14T02:31:47.968Z,0.00
2018-11-14T02:32:47.933Z,0.00
2018-11-14T02:33:47.902Z,0.00
2018-11-14T02:34:47.868Z,0.00
2018-11-14T02:35:47.838Z,0.00
2018-11-14T02:36:47.804Z,0.00
2018-11-14T02:37:47.862Z,0.00
2018-11-14T02:38:47.740Z,0.00
2018-11-14T02:39:47.708Z,0.00
2018-11-14T02:40:47.677Z,0.00
2018-11-14T02:41:47.651Z,0.00
2018-11-14T02:42:47.608Z,0.00
2018-11-14T02:43:47.578Z,0.00
2018-11-14T02:44:47.544Z,0.00
2018-11-14T02:45:47.512Z,0.00
2018-11-14T02:46:47.490Z,0.00
2018-11-14T02:47:47.447Z,0.00
2018-11-14T02:48:47.413Z,0.00
2018-11-14T02:49:47.388Z,0.00
2018-11-14T02:50:47.350Z,0.00
2018-11-14T02:51:47.317Z,0.00
2018-11-14T02:52:47.335Z,0.00
2018-11-14T02:53:47.252Z,0.00
2018-11-14T02:54:47.220Z,0.00
2018-11-14T02:55:47.191Z,0.00
2018-11-14T02:56:47.153Z,0.00
2018-11-14T02:57:47.123Z,0.00
2018-11-14T02:58:47.090Z,0.00
2018-11-14T02:59:47.058Z,0.00
2018-11-14T03:00:47.026Z,0.00
2018-11-14T03:01:46.993Z,0.00
2018-11-14T03:02:46.963Z,0.00
2018-11-14T03:03:46.928Z,0.00
2018-11-14T03:04:46.894Z,0.00
2018-11-14T03:05:46.866Z,0.00
2018-11-14T03:06:46.831Z,0.00
2018-11-14T03:07:46.798Z,0.00
2018-11-14T03:08:46.764Z,0.00
2018-11-14T03:09:46.731Z,0.00
2018-11-14T03:10:46.699Z,0.00
2018-11-14T03:11:46.666Z,0.00
2018-11-14T03:12:46.635Z,0.00
2018-11-14T03:13:46.605Z,0.00
2018-11-14T03:14:46.570Z,0.00
2018-11-14T03:15:46.536Z,0.00
2018-11-14T03:16:46.505Z,0.00
2018-11-14T03:17:46.471Z,0.00
2018-11-14T03:18:46.438Z,0.00
2018-11-14T03:19:46.405Z,0.00
2018-11-14T03:20:46.376Z,0.00
2018-11-14T03:21:46.341Z,0.00
2018-11-14T03:22:46.308Z,0.00
2018-11-14T03:23:46.276Z,0.00
2018-11-14T03:24:46.243Z,0.00
2018-11-14T03:25:46.209Z,0.00
2018-11-14T03:26:46.178Z,0.00
2018-11-14T03:27:46.147Z,0.00
2018-11-14T03:28:46.112Z,0.00
2018-11-14T03:29:46.086Z,0.00
2018-11-14T03:30:46.051Z,0.00
2018-11-14T03:31:46.024Z,0.00
2018-11-14T03:32:45.992Z,0.00
2018-11-14T03:33:45.951Z,0.00
2018-11-14T03:34:45.920Z,0.00
2018-11-14T03:35:45.884Z,0.00
2018-11-14T03:36:45.851Z,0.00
2018-11-14T03:37:45.818Z,0.00
2018-11-14T03:38:45.786Z,0.00
2018-11-14T03:39:45.754Z,0.00
2018-11-14T03:40:45.722Z,0.00
2018-11-14T03:41:45.689Z,0.00
2018-11-14T03:42:45.655Z,0.00
2018-11-14T03:43:45.622Z,0.00
2018-11-14T03:44:45.591Z,0.00
2018-11-14T03:45:45.559Z,0.00
2018-11-14T03:46:45.524Z,0.00
2018-11-14T03:47:45.498Z,0.00
2018-11-14T03:48:45.458Z,0.00
2018-11-14T03:49:45.428Z,0.00
2018-11-14T03:50:45.394Z,0.00
2018-11-14T03:51:45.360Z,0.00
2018-11-14T03:52:45.329Z,0.00
2018-11-14T03:53:45.294Z,0.00
2018-11-14T03:54:45.262Z,0.00
2018-11-14T03:55:45.235Z,0.00
2018-11-14T03:56:45.197Z,0.00
2018-11-14T03:57:45.163Z,0.00
2018-11-14T03:58:45.132Z,0.00
2018-11-14T03:59:45.099Z,0.00
2018-11-14T04:00:45.067Z,0.00
2018-11-14T04:01:45.035Z,0.00
2018-11-14T04:02:45.004Z,0.00
2018-11-14T04:03:44.966Z,0.00
2018-11-14T04:04:44.935Z,0.00
2018-11-14T04:05:44.903Z,0.00
2018-11-14T04:06:44.868Z,0.00
2018-11-14T04:07:44.837Z,0.00
2018-11-14T04:08:44.802Z,0.00
2018-11-14T04:09:44.770Z,0.00
2018-11-14T04:10:44.739Z,0.00
2018-11-14T04:11:44.704Z,0.00
2018-11-14T04:12:44.671Z,0.00
2018-11-14T04:13:44.638Z,0.00
2018-11-14T04:14:44.609Z,0.00
2018-11-14T04:15:44.574Z,0.00
2018-11-14T04:16:44.539Z,0.00
2018-11-14T04:17:44.507Z,0.00
2018-11-14T04:18:44.474Z,0.00
2018-11-14T04:19:44.440Z,0.00
2018-11-14T04:20:44.407Z,0.00
2018-11-14T04:21:44.374Z,0.00
2018-11-14T04:22:44.346Z,0.00
2018-11-14T04:23:44.313Z,0.00
2018-11-14T04:24:44.276Z,0.00
2018-11-14T04:25:44.244Z,0.00
2018-11-14T04:26:44.211Z,0.00
2018-11-14T04:27:44.179Z,0.00
2018-11-14T04:28:44.147Z,0.00
2018-11-14T04:29:44.110Z,0.00
2018-11-14T04:30:44.078Z,0.00
2018-11-14T04:31:44.046Z,0.00
2018-11-14T04:32:44.012Z,0.00
2018-11-14T04:33:43.980Z,0.00
2018-11-14T04:34:43.947Z,0.00
2018-11-14T04:35:43.913Z,0.00
2018-11-14T04:36:43.881Z,0.00
2018-11-14T04:37:43.849Z,0.00
2018-11-14T04:38:43.816Z,0.00
2018-11-14T04:39:43.783Z,0.00
2018-11-14T04:40:43.754Z,0.00
2018-11-14T04:41:43.715Z,0.00
2018-11-14T04:42:43.683Z,0.00
2018-11-14T04:43:43.651Z,0.00
2018-11-14T04:44:43.618Z,0.00
2018-11-14T04:45:43.583Z,0.00
2018-11-14T04:46:43.552Z,0.00
2018-11-14T04:47:43.521Z,0.00
2018-11-14T04:48:43.532Z,0.00
2018-11-14T04:49:43.456Z,0.00
2018-11-14T04:50:43.423Z,0.00
2018-11-14T04:51:43.387Z,0.00
2018-11-14T04:52:43.352Z,0.00
2018-11-14T04:53:43.320Z,0.00
2018-11-14T04:54:43.290Z,0.00
2018-11-14T04:55:43.254Z,0.00
2018-11-14T04:56:43.222Z,0.00
2018-11-14T04:57:43.190Z,0.00
2018-11-14T04:58:43.156Z,0.00
2018-11-14T04:59:43.123Z,0.00
2018-11-14T05:00:43.089Z,0.00
2018-11-14T05:01:43.059Z,0.00
2018-11-14T05:02:43.078Z,0.00
2018-11-14T05:03:42.993Z,0.00
2018-11-14T05:04:42.958Z,0.00
2018-11-14T05:05:42.925Z,0.00
2018-11-14T05:06:42.891Z,0.00
2018-11-14T05:07:42.860Z,0.00
2018-11-14T05:08:42.825Z,0.00
2018-11-14T05:09:42.794Z,0.00
2018-11-14T05:10:42.761Z,0.00
2018-11-14T05:11:42.729Z,0.00
2018-11-14T05:12:42.748Z,0.00
2018-11-14T05:13:42.662Z,0.00
2018-11-14T05:14:42.630Z,0.00
2018-11-14T05:15:42.597Z,0.00
2018-11-14T05:16:42.563Z,0.00
2018-11-14T05:17:42.533Z,0.00
2018-11-14T05:18:42.498Z,0.00
2018-11-14T05:19:42.465Z,0.00
2018-11-14T05:20:42.431Z,0.00
2018-11-14T05:21:42.403Z,0.00
2018-11-14T05:22:42.368Z,0.00
2018-11-14T05:23:42.333Z,0.00
2018-11-14T05:24:42.358Z,0.00
2018-11-14T05:25:42.267Z,0.00
2018-11-14T05:26:42.236Z,0.00
2018-11-14T05:27:42.200Z,0.00
2018-11-14T05:28:42.169Z,0.00
2018-11-14T05:29:42.136Z,0.00
2018-11-14T05:30:42.103Z,0.00
2018-11-14T05:31:42.079Z,0.00
2018-11-14T05:32:42.035Z,0.00
2018-11-14T05:33:42.005Z,0.00
2018-11-14T05:34:41.973Z,0.00
2018-11-14T05:35:41.937Z,0.00
2018-11-14T05:36:41.905Z,0.00
2018-11-14T05:37:41.871Z,0.00
2018-11-14T05:38:41.838Z,0.00
2018-11-14T05:39:41.871Z,0.00
2018-11-14T05:40:41.774Z,0.00
2018-11-14T05:41:41.739Z,0.00
2018-11-14T05:42:41.707Z,0.00
2018-11-14T05:43:41.674Z,0.00
2018-11-14T05:44:41.641Z,0.00
2018-11-14T05:45:41.657Z,0.00
2018-11-14T05:46:41.576Z,0.00
2018-11-14T05:47:41.546Z,0.00
2018-11-14T05:48:41.510Z,0.00
2018-11-14T05:49:41.476Z,0.00
2018-11-14T05:50:41.445Z,0.00
2018-11-14T05:51:41.412Z,0.00
2018-11-14T05:52:41.378Z,0.00
2018-11-14T05:53:41.345Z,0.00
2018-11-14T05:54:41.316Z,0.00
2018-11-14T05:55:41.281Z,0.00
2018-11-14T05:56:41.247Z,0.00
2018-11-14T05:57:41.214Z,0.00
2018-11-14T05:58:41.181Z,0.00
2018-11-14T05:59:41.153Z,0.00
2018-11-14T06:00:41.116Z,0.00
2018-11-14T06:01:41.085Z,0.00
2018-11-14T06:02:41.052Z,0.00
2018-11-14T06:03:41.022Z,0.00
2018-11-14T06:04:40.986Z,0.00
2018-11-14T06:05:40.953Z,0.00
2018-11-14T06:06:40.920Z,0.00
2018-11-14T06:07:40.919Z,0.00
2018-11-14T06:08:40.855Z,0.00
2018-11-14T06:09:40.823Z,0.00
2018-11-14T06:10:40.797Z,0.00
2018-11-14T06:11:40.760Z,0.00
2018-11-14T06:12:40.726Z,0.00
2018-11-14T06:13:40.695Z,0.00
2018-11-14T06:14:40.662Z,0.00
2018-11-14T06:15:40.629Z,0.00
2018-11-14T06:16:40.596Z,0.00
2018-11-14T06:17:40.565Z,0.00
2018-11-14T06:18:40.534Z,0.00
2018-11-14T06:19:40.500Z,0.00
2018-11-14T06:20:40.467Z,0.00
2018-11-14T06:21:40.456Z,0.00
2018-11-14T06:22:40.402Z,0.00
2018-11-14T06:23:40.570Z,0.00
2018-11-14T06:24:40.339Z,0.00
2018-11-14T06:25:40.307Z,5.63
2018-11-14T06:26:40.281Z,5.63
2018-11-14T06:27:40.244Z,5.63
2018-11-14T06:28:40.213Z,5.63
2018-11-14T06:29:40.224Z,5.63
2018-11-14T06:30:40.149Z,5.63
2018-11-14T06:31:40.115Z,5.63
2018-11-14T06:32:40.082Z,5.63
2018-11-14T06:33:40.050Z,5.63
2018-11-14T06:34:40.020Z,5.63
2018-11-14T06:35:39.987Z,5.63
2018-11-14T06:36:39.956Z,5.63
2018-11-14T06:37:39.923Z,11.25
2018-11-14T06:38:39.891Z,11.25
2018-11-14T06:39:39.858Z,11.25
2018-11-14T06:40:39.825Z,11.25
2018-11-14T06:41:39.889Z,11.25
2018-11-14T06:42:39.766Z,16.88
2018-11-14T06:43:39.732Z,16.88
2018-11-14T06:44:39.699Z,16.88
2018-11-14T06:45:39.668Z,16.88
2018-11-14T06:46:39.636Z,16.88
2018-11-14T06:47:39.606Z,16.88
2018-11-14T06:48:39.571Z,22.50
2018-11-14T06:49:39.541Z,16.88
2018-11-14T06:50:39.509Z,22.50
2018-11-14T06:51:39.478Z,22.50
2018-11-14T06:52:39.445Z,22.50
2018-11-14T06:53:39.413Z,22.50
2018-11-14T06:54:39.382Z,28.13
2018-11-14T06:55:39.350Z,28.13
2018-11-14T06:56:39.318Z,28.13
2018-11-14T06:57:39.286Z,28.13
2018-11-14T06:58:39.265Z,28.13
2018-11-14T06:59:39.240Z,28.13
2018-11-14T07:00:39.191Z,33.75
2018-11-14T07:01:39.160Z,28.13
2018-11-14T07:02:39.128Z,33.75
2018-11-14T07:03:39.095Z,33.75
2018-11-14T07:04:39.065Z,33.75
2018-11-14T07:05:39.095Z,39.38
2018-11-14T07:06:38.999Z,39.38
2018-11-14T07:07:38.969Z,39.38
2018-11-14T07:08:38.937Z,39.38
2018-11-14T07:09:38.905Z,45.00
2018-11-14T07:10:38.873Z,45.00
2018-11-14T07:11:38.845Z,45.00
2018-11-14T07:12:38.809Z,50.63
2018-11-14T07:13:38.777Z,50.63
2018-11-14T07:14:38.747Z,56.25
2018-11-14T07:15:38.714Z,56.25
2018-11-14T07:16:38.686Z,61.88
2018-11-14T07:17:38.656Z,61.88
2018-11-14T07:18:38.620Z,61.88
2018-11-14T07:19:38.587Z,61.88
2018-11-14T07:20:38.556Z,61.88
2018-11-14T07:21:38.524Z,61.88
2018-11-14T07:22:38.496Z,67.50
2018-11-14T07:23:38.471Z,73.13
2018-11-14T07:24:38.495Z,73.13
2018-11-14T07:25:38.395Z,73.13
2018-11-14T07:26:38.368Z,73.13
2018-11-14T07:27:38.334Z,73.13
2018-11-14T07:28:38.303Z,73.13
2018-11-14T07:29:38.270Z,73.13
2018-11-14T07:30:38.237Z,78.75
2018-11-14T07:31:38.208Z,78.75
2018-11-14T07:32:38.175Z,78.75
2018-11-14T07:33:38.144Z,78.75
2018-11-14T07:34:38.112Z,78.75
2018-11-14T07:35:38.082Z,90.00
2018-11-14T07:36:38.048Z,95.63
2018-11-14T07:37:38.061Z,106.88
2018-11-14T07:38:37.985Z,118.13
2018-11-14T07:39:37.955Z,118.13
2018-11-14T07:40:37.928Z,118.13
2018-11-14T07:41:37.891Z,101.25
2018-11-14T07:42:37.860Z,106.88
2018-11-14T07:43:37.899Z,129.38
2018-11-14T07:44:37.796Z,123.75
2018-11-14T07:45:37.765Z,123.75
2018-11-14T07:46:37.737Z,112.50
2018-11-14T07:47:37.704Z,106.88
2018-11-14T07:48:37.673Z,106.88
2018-11-14T07:49:37.640Z,135.00
2018-11-14T07:50:37.609Z,129.38
2018-11-14T07:51:37.578Z,135.00
2018-11-14T07:52:37.546Z,146.25
2018-11-14T07:53:37.515Z,163.13
2018-11-14T07:54:37.513Z,151.88
2018-11-14T07:55:37.453Z,168.75
2018-11-14T07:56:37.422Z,163.13
2018-11-14T07:57:37.389Z,157.50
2018-11-14T07:58:37.359Z,168.75
2018-11-14T07:59:37.327Z,157.50
2018-11-14T08:00:37.295Z,157.50
2018-11-14T08:01:37.265Z,163.13
2018-11-14T08:02:37.233Z,163.13
2018-11-14T08:03:37.203Z,157.50
2018-11-14T08:04:37.170Z,168.75
2018-11-14T08:05:37.139Z,168.75
2018-11-14T08:06:37.107Z,163.13
2018-11-14T08:07:37.100Z,174.38
2018-11-14T08:08:37.045Z,163.13
2018-11-14T08:09:37.015Z,191.25
2018-11-14T08:10:36.983Z,191.25
2018-11-14T08:11:36.954Z,168.75
2018-11-14T08:12:36.925Z,163.13
2018-11-14T08:13:36.891Z,180.00
2018-11-14T08:14:36.861Z,168.75
2018-11-14T08:15:36.830Z,196.88
2018-11-14T08:16:36.797Z,185.63
2018-11-14T08:17:36.766Z,196.88
2018-11-14T08:18:36.789Z,191.25
2018-11-14T08:19:36.706Z,174.38
2018-11-14T08:20:36.680Z,174.38
2018-11-14T08:21:36.643Z,185.63
2018-11-14T08:22:36.612Z,202.50
2018-11-14T08:23:36.582Z,196.88
2018-11-14T08:24:36.550Z,191.25
2018-11-14T08:25:36.519Z,185.63
2018-11-14T08:26:36.487Z,168.75
2018-11-14T08:27:36.456Z,168.75
2018-11-14T08:28:36.424Z,174.38
2018-11-14T08:29:36.396Z,168.75
2018-11-14T08:30:36.438Z,174.38
2018-11-14T08:31:36.332Z,180.00
2018-11-14T08:32:36.301Z,191.25
2018-11-14T08:33:36.270Z,202.50
2018-11-14T08:34:36.239Z,196.88
2018-11-14T08:35:36.210Z,202.50
2018-11-14T08:36:36.179Z,219.38
2018-11-14T08:37:36.147Z,236.25
2018-11-14T08:38:36.117Z,258.75
2018-11-14T08:39:36.088Z,241.88
2018-11-14T08:40:36.054Z,241.88
2018-11-14T08:41:36.025Z,247.50
2018-11-14T08:42:35.994Z,253.13
2018-11-14T08:43:35.964Z,258.75
2018-11-14T08:44:35.933Z,275.63
2018-11-14T08:45:35.902Z,270.00
2018-11-14T08:46:35.871Z,275.63
2018-11-14T08:47:35.841Z,286.88
2018-11-14T08:48:35.810Z,286.88
2018-11-14T08:49:35.779Z,292.50
2018-11-14T08:50:35.749Z,270.00
2018-11-14T08:51:35.720Z,286.88
2018-11-14T08:52:35.688Z,286.88
2018-11-14T08:53:35.655Z,264.38
2018-11-14T08:54:35.627Z,286.88
2018-11-14T08:55:35.648Z,281.25
2018-11-14T08:56:35.567Z,258.75
2018-11-14T08:57:35.536Z,236.25
2018-11-14T08:58:35.504Z,258.75
2018-11-14T08:59:35.475Z,264.38
2018-11-14T09:00:35.443Z,281.25
2018-11-14T09:01:35.412Z,275.63
2018-11-14T09:02:35.382Z,236.25
2018-11-14T09:03:35.351Z,225.00
2018-11-14T09:04:35.322Z,219.38
2018-11-14T09:05:35.294Z,219.38
2018-11-14T09:06:35.261Z,253.13
2018-11-14T09:07:35.231Z,264.38
2018-11-14T09:08:35.200Z,253.13
2018-11-14T09:09:35.169Z,286.88
2018-11-14T09:10:35.141Z,258.75
2018-11-14T09:11:35.109Z,253.13
2018-11-14T09:12:35.112Z,253.13
2018-11-14T09:13:35.048Z,270.00
2018-11-14T09:14:35.092Z,264.38
2018-11-14T09:15:34.987Z,253.13
2018-11-14T09:16:34.956Z,241.88
2018-11-14T09:17:34.925Z,236.25
2018-11-14T09:18:34.924Z,253.13
2018-11-14T09:19:34.866Z,258.75
2018-11-14T09:20:34.833Z,247.50
2018-11-14T09:21:34.802Z,258.75
2018-11-14T09:22:34.773Z,270.00
2018-11-14T09:23:34.743Z,258.75
2018-11-14T09:24:34.712Z,264.38
2018-11-14T09:25:34.682Z,286.88
2018-11-14T09:26:34.651Z,264.38
2018-11-14T09:27:34.622Z,258.75
2018-11-14T09:28:34.593Z,281.25
2018-11-14T09:29:34.559Z,286.88
2018-11-14T09:30:34.529Z,275.63
2018-11-14T09:31:34.500Z,241.88
2018-11-14T09:32:34.468Z,213.75
2018-11-14T09:33:34.438Z,213.75
2018-11-14T09:34:34.471Z,208.13
2018-11-14T09:35:34.379Z,196.88
2018-11-14T09:36:34.349Z,208.13
2018-11-14T09:37:34.319Z,236.25
2018-11-14T09:38:34.287Z,236.25
2018-11-14T09:39:34.259Z,236.25
2018-11-14T09:40:34.235Z,247.50
2018-11-14T09:41:34.289Z,219.38
2018-11-14T09:42:34.168Z,253.13
2018-11-14T09:43:34.137Z,298.13
2018-11-14T09:44:34.114Z,337.50
2018-11-14T09:45:34.076Z,354.38
2018-11-14T09:46:34.046Z,354.38
2018-11-14T09:47:34.017Z,309.38
2018-11-14T09:48:34.041Z,298.13
2018-11-14T09:49:33.956Z,275.63
2018-11-14T09:50:33.927Z,225.00
2018-11-14T09:51:33.896Z,208.13
2018-11-14T09:52:33.865Z,208.13
2018-11-14T09:53:33.845Z,253.13
2018-11-14T09:54:33.806Z,225.00
2018-11-14T09:55:33.777Z,253.13
2018-11-14T09:56:33.771Z,281.25
2018-11-14T09:57:33.714Z,320.63
2018-11-14T09:58:33.686Z,354.38
2018-11-14T09:59:33.656Z,360.00
2018-11-14T10:00:33.644Z,320.63
2018-11-14T10:01:33.602Z,298.13
2018-11-14T10:02:33.566Z,360.00
2018-11-14T10:03:33.577Z,376.88
2018-11-14T10:04:33.505Z,416.25
2018-11-14T10:05:33.485Z,393.75
2018-11-14T10:06:33.445Z,360.00
2018-11-14T10:07:33.416Z,388.13
2018-11-14T10:08:33.386Z,331.88
2018-11-14T10:09:33.362Z,376.88
2018-11-14T10:10:33.325Z,410.63
2018-11-14T10:11:33.298Z,365.63
2018-11-14T10:12:33.309Z,320.63
2018-11-14T10:13:33.236Z,292.50
2018-11-14T10:14:33.249Z,292.50
2018-11-14T10:15:33.189Z,264.38
2018-11-14T10:16:33.145Z,241.88
2018-11-14T10:17:33.117Z,264.38
2018-11-14T10:18:33.138Z,292.50
2018-11-14T10:19:33.057Z,320.63
2018-11-14T10:20:33.073Z,371.25
2018-11-14T10:21:33.058Z,371.25
2018-11-14T10:22:32.967Z,354.38
2018-11-14T10:23:32.939Z,331.88
2018-11-14T10:24:32.918Z,360.00
2018-11-14T10:25:32.879Z,405.00
2018-11-14T10:26:32.850Z,416.25
2018-11-14T10:27:32.819Z,433.13
2018-11-14T10:28:32.789Z,427.50
2018-11-14T10:29:32.761Z,410.63
2018-11-14T10:30:32.738Z,382.50
2018-11-14T10:31:32.724Z,416.25
2018-11-14T10:32:32.679Z,495.00
2018-11-14T10:33:32.643Z,500.63
2018-11-14T10:34:32.611Z,495.00
2018-11-14T10:35:32.584Z,466.88
2018-11-14T10:36:32.552Z,461.25
2018-11-14T10:37:32.523Z,405.00
2018-11-14T10:38:32.500Z,365.63
2018-11-14T10:39:32.466Z,354.38
2018-11-14T10:40:32.435Z,376.88
2018-11-14T10:41:32.405Z,388.13
2018-11-14T10:42:32.376Z,365.63
2018-11-14T10:43:32.345Z,343.13
2018-11-14T10:44:32.317Z,320.63
2018-11-14T10:45:32.287Z,303.75
2018-11-14T10:46:32.259Z,315.00
2018-11-14T10:47:32.229Z,292.50
2018-11-14T10:48:32.200Z,292.50
2018-11-14T10:49:32.168Z,292.50
2018-11-14T10:50:32.140Z,292.50
2018-11-14T10:51:32.120Z,292.50
2018-11-14T10:52:32.082Z,292.50
2018-11-14T10:53:32.055Z,303.75
2018-11-14T10:54:32.025Z,303.75
2018-11-14T10:55:31.993Z,309.38
2018-11-14T10:56:31.962Z,315.00
2018-11-14T10:57:31.933Z,303.75
2018-11-14T10:58:31.974Z,298.13
2018-11-14T10:59:31.876Z,275.63
2018-11-14T11:00:31.845Z,270.00
2018-11-14T11:01:31.816Z,303.75
2018-11-14T11:02:31.787Z,337.50
2018-11-14T11:03:31.759Z,315.00
2018-11-14T11:04:31.729Z,326.25
2018-11-14T11:05:31.697Z,376.88
2018-11-14T11:06:31.672Z,405.00
2018-11-14T11:07:31.641Z,382.50
2018-11-14T11:08:31.692Z,433.13
2018-11-14T11:09:31.581Z,444.38
2018-11-14T11:10:31.552Z,433.13
2018-11-14T11:11:31.524Z,450.00
2018-11-14T11:12:31.492Z,461.25
2018-11-14T11:13:31.463Z,444.38
2018-11-14T11:14:31.434Z,444.38
2018-11-14T11:15:31.404Z,483.75
2018-11-14T11:16:31.399Z,450.00
2018-11-14T11:17:31.348Z,416.25
2018-11-14T11:18:31.315Z,393.75
2018-11-14T11:19:31.288Z,399.38
2018-11-14T11:20:31.255Z,382.50
2018-11-14T11:21:31.228Z,360.00
2018-11-14T11:22:31.198Z,376.88
2018-11-14T11:23:31.222Z,382.50
2018-11-14T11:24:31.139Z,427.50
2018-11-14T11:25:31.109Z,433.13
2018-11-14T11:26:31.079Z,421.88
2018-11-14T11:27:31.052Z,393.75
2018-11-14T11:28:31.021Z,376.88
2018-11-14T11:29:30.992Z,393.75
2018-11-14T11:30:30.987Z,416.25
2018-11-14T11:31:30.935Z,455.63
2018-11-14T11:32:30.906Z,455.63
2018-11-14T11:33:30.876Z,450.00
2018-11-14T11:34:30.846Z,421.88
2018-11-14T11:35:30.817Z,376.88
2018-11-14T11:36:30.785Z,376.88
2018-11-14T11:37:30.760Z,388.13
2018-11-14T11:38:30.729Z,388.13
2018-11-14T11:39:30.700Z,365.63
2018-11-14T11:40:30.671Z,337.50
2018-11-14T11:41:30.640Z,320.63
2018-11-14T11:42:30.612Z,292.50
2018-11-14T11:43:30.586Z,275.63
2018-11-14T11:44:30.647Z,270.00
2018-11-14T11:45:30.524Z,270.00
2018-11-14T11:46:30.495Z,275.63
2018-11-14T11:47:30.466Z,286.88
2018-11-14T11:48:30.436Z,292.50
2018-11-14T11:49:30.406Z,320.63
2018-11-14T11:50:30.376Z,354.38
2018-11-14T11:51:30.349Z,365.63
2018-11-14T11:52:30.318Z,382.50
2018-11-14T11:53:30.288Z,399.38
2018-11-14T11:54:30.262Z,444.38
2018-11-14T11:55:30.233Z,472.50
2018-11-14T11:56:30.200Z,500.63
2018-11-14T11:57:30.224Z,528.75
2018-11-14T11:58:30.143Z,556.88
2018-11-14T11:59:30.127Z,556.88
2018-11-14T12:00:30.294Z,545.63
2018-11-14T12:01:30.058Z,528.75
2018-11-14T12:02:30.026Z,495.00
2018-11-14T12:03:29.996Z,472.50
2018-11-14T12:04:30.160Z,461.25
2018-11-14T12:05:29.937Z,455.63
2018-11-14T12:06:29.938Z,455.63
2018-11-14T12:07:29.884Z,444.38
2018-11-14T12:08:29.851Z,421.88
2018-11-14T12:09:29.823Z,405.00
2018-11-14T12:10:29.829Z,399.38
2018-11-14T12:11:29.767Z,399.38
2018-11-14T12:12:29.737Z,399.38
2018-11-14T12:13:29.712Z,393.75
2018-11-14T12:14:29.680Z,388.13
2018-11-14T12:15:29.654Z,382.50
2018-11-14T12:16:29.620Z,371.25
2018-11-14T12:17:29.633Z,365.63
2018-11-14T12:18:29.565Z,360.00
2018-11-14T12:19:29.542Z,360.00
2018-11-14T12:20:29.507Z,365.63
2018-11-14T12:21:29.479Z,399.38
2018-11-14T12:22:29.448Z,421.88
2018-11-14T12:23:29.469Z,438.75
2018-11-14T12:24:29.391Z,450.00
2018-11-14T12:25:29.363Z,461.25
2018-11-14T12:26:29.335Z,472.50
2018-11-14T12:27:29.312Z,489.38
2018-11-14T12:28:29.275Z,511.88
2018-11-14T12:29:29.247Z,511.88
2018-11-14T12:30:29.321Z,517.50
2018-11-14T12:31:29.190Z,517.50
2018-11-14T12:32:29.163Z,517.50
2018-11-14T12:33:29.132Z,523.13
2018-11-14T12:34:29.131Z,534.38
2018-11-14T12:35:29.077Z,540.00
2018-11-14T12:36:29.047Z,545.63
2018-11-14T12:37:29.019Z,551.25
2018-11-14T12:38:28.992Z,540.00
2018-11-14T12:39:28.961Z,540.00
2018-11-14T12:40:28.932Z,540.00
2018-11-14T12:41:28.907Z,540.00
2018-11-14T12:42:28.876Z,551.25
2018-11-14T12:43:29.048Z,556.88
2018-11-14T12:44:28.818Z,562.50
2018-11-14T12:45:28.832Z,562.50
2018-11-14T12:46:28.763Z,568.13
2018-11-14T12:47:28.736Z,573.75
2018-11-14T12:48:28.706Z,573.75
2018-11-14T12:49:28.678Z,573.75
2018-11-14T12:50:28.651Z,573.75
2018-11-14T12:51:28.622Z,573.75
2018-11-14T12:52:28.596Z,568.13
2018-11-14T12:53:28.565Z,568.13
2018-11-14T12:54:28.536Z,562.50
2018-11-14T12:55:28.509Z,562.50